Airfield :
LOGIN :

Register | Disclaimer

   EN    FR    IT 

 










Legend :    VFR   Marginal VFR   IFR   Intensive IFR   Very Intensive IFR
Visi :
Ceiling :
>= 8 km
>= 3000ft
5 to 8 km
1000 to 3000 ft
1500m to 5 km
500 to 1000 ft
800 to 1500m
200 to 500 ft
< 800m
< 200 ft
Symbols :   Thunderstorms  Fog  Heavy snow  Heavy precipitations  Wind > 20 kt
SIGMETs :     Misc.  Thunderstorms  Icing  Turbulence  Mountain Waves  Volcanic Ashes






- Airport Elevation : 499 ft
- IATA code : TLS


LFBO - Toulouse / Blagnac

CURRENT METAR :
  • 292000Z AUTO 21001KT CAVOK 13/10 Q1026 NOSIG

EXPIRED METARs :
  • 291930Z AUTO VRB01KT CAVOK 13/10 Q1026 NOSIG
  • 291900Z AUTO 09003KT CAVOK 15/11 Q1026 NOSIG
  • 291830Z AUTO 08002KT CAVOK 14/10 Q1026 NOSIG
  • 291800Z AUTO 08003KT CAVOK 15/11 Q1026 NOSIG
  • 291730Z AUTO 09003KT CAVOK 16/11 Q1026 NOSIG

TAF TAF LFBO
Valid from the 29 at 18:00 until the 31 at 00:00 UTC


291700Z 2918/3024 VRB02KT CAVOK
BECMG 2923/3001 3000 BR
TEMPO 3002/3007 0500 FG VV///
TEMPO 3007/3010 OVC003
BECMG 3010/3012 CAVOK
TEMPO 3021/3024 4000 BR
ATIS : +33 5 62 74 66 36



MET'MAP, your aeronautical weather chart ! - Copyright ORBIFLY December 2007 - Disclaimer

ORBIFLY MET'MAP TEAM :

Programming & Development : Alexandra Zaïnal
Concept & original design : Baudouin d'Aumeries
Assistance for programming : Marc-Olivier Méhu
Technical & hardware support : Manuel Goepfert

Contact : metmap@orbifly.com




SOURCES & CREDITS :

   NOAA